createdAt,value
2022-09-16T00:02:34.860Z,99.90
2022-09-16T00:07:40.773Z,99.90
2022-09-16T00:12:43.805Z,99.90
2022-09-16T00:17:46.683Z,99.90
2022-09-16T00:22:49.517Z,99.90
2022-09-16T00:27:52.267Z,99.90
2022-09-16T00:32:55.083Z,99.90
2022-09-16T00:37:57.850Z,99.90
2022-09-16T00:43:01.167Z,99.90
2022-09-16T00:48:09.558Z,99.90
2022-09-16T00:53:29.357Z,99.90
2022-09-16T00:58:34.975Z,99.90
2022-09-16T01:03:49.048Z,99.90
2022-09-16T01:08:52.180Z,99.90
2022-09-16T01:14:15.378Z,99.90
2022-09-16T01:19:45.062Z,99.90
2022-09-16T01:25:24.749Z,99.90
2022-09-16T01:31:24.626Z,99.90
2022-09-16T01:36:52.980Z,99.90
2022-09-16T01:42:16.081Z,99.90
2022-09-16T01:47:45.043Z,99.90
2022-09-16T01:53:23.427Z,99.90
2022-09-16T01:58:31.892Z,99.90
2022-09-16T02:03:38.197Z,99.90
2022-09-16T02:09:20.742Z,99.90
2022-09-16T02:14:29.019Z,99.90
2022-09-16T02:20:00.621Z,99.90
2022-09-16T02:25:05.231Z,99.90
2022-09-16T02:30:17.920Z,99.90
2022-09-16T02:35:22.475Z,99.90
2022-09-16T02:40:34.848Z,99.90
2022-09-16T02:46:15.567Z,99.90
2022-09-16T02:51:58.644Z,99.90
2022-09-16T02:57:01.548Z,99.90
2022-09-16T03:02:04.637Z,99.90
2022-09-16T03:07:11.033Z,99.90
2022-09-16T03:12:44.650Z,99.90
2022-09-16T03:18:12.015Z,99.90
2022-09-16T03:23:40.237Z,99.90
2022-09-16T03:29:28.018Z,99.90
2022-09-16T03:34:43.274Z,99.90
2022-09-16T03:39:57.820Z,99.90
2022-09-16T03:45:00.768Z,99.90
2022-09-16T03:50:04.783Z,99.90
2022-09-16T03:55:08.841Z,99.90
2022-09-16T04:00:12.476Z,99.90
2022-09-16T04:05:15.519Z,99.90
2022-09-16T04:10:19.155Z,99.90
2022-09-16T04:15:22.606Z,99.90
2022-09-16T04:20:25.400Z,99.90
2022-09-16T04:25:28.342Z,99.90
2022-09-16T04:30:31.220Z,99.90
2022-09-16T04:35:34.045Z,99.90
2022-09-16T04:40:39.783Z,99.90
2022-09-16T04:45:42.549Z,99.90
2022-09-16T04:50:45.579Z,99.90
2022-09-16T04:55:48.804Z,99.90
2022-09-16T05:00:51.808Z,99.90
2022-09-16T05:05:54.629Z,99.90
2022-09-16T05:11:04.797Z,99.90
2022-09-16T05:16:12.262Z,99.90
2022-09-16T05:21:19.594Z,99.90
2022-09-16T05:26:25.920Z,99.90
2022-09-16T05:31:32.152Z,99.90
2022-09-16T05:36:39.042Z,99.90
2022-09-16T05:41:41.917Z,99.90
2022-09-16T05:46:44.789Z,99.90
2022-09-16T05:51:49.782Z,99.90
2022-09-16T05:56:52.642Z,99.90
2022-09-16T06:01:55.561Z,99.90
2022-09-16T06:06:58.321Z,99.90
2022-09-16T06:12:02.402Z,99.90
2022-09-16T06:17:05.314Z,99.90
2022-09-16T06:22:08.108Z,99.90
2022-09-16T06:27:10.824Z,99.90
2022-09-16T06:32:13.564Z,99.90
2022-09-16T06:37:16.741Z,99.90
2022-09-16T06:42:19.685Z,99.90
2022-09-16T06:47:22.684Z,99.90
2022-09-16T06:52:25.515Z,99.90
2022-09-16T06:57:28.245Z,99.90
2022-09-16T07:02:31.341Z,99.90
2022-09-16T07:07:36.550Z,99.90
2022-09-16T07:12:40.002Z,99.90
2022-09-16T07:17:42.759Z,99.90
2022-09-16T07:22:45.612Z,99.90
2022-09-16T07:27:48.443Z,99.90
2022-09-16T07:32:51.225Z,99.90
2022-09-16T07:37:54.079Z,99.90
2022-09-16T07:42:57.812Z,99.90
2022-09-16T07:48:00.601Z,99.90
2022-09-16T07:53:04.579Z,99.90
2022-09-16T07:58:08.672Z,99.90
2022-09-16T08:03:11.526Z,99.90
2022-09-16T08:08:14.443Z,99.90
2022-09-16T08:13:17.488Z,99.90
2022-09-16T08:18:20.664Z,99.90
2022-09-16T08:23:23.601Z,99.90
2022-09-16T08:28:39.640Z,99.90
2022-09-16T08:33:51.286Z,99.90
2022-09-16T08:38:57.510Z,99.90
2022-09-16T08:44:37.659Z,99.90
2022-09-16T08:49:46.500Z,99.90
2022-09-16T08:54:59.350Z,99.90
2022-09-16T09:00:15.572Z,99.90
2022-09-16T09:05:40.324Z,99.90
2022-09-16T09:10:57.444Z,99.90
2022-09-16T09:16:21.800Z,99.90
2022-09-16T09:22:18.875Z,99.90
2022-09-16T09:28:00.341Z,99.90
2022-09-16T09:33:46.196Z,99.90
2022-09-16T09:39:32.675Z,99.90
2022-09-16T09:44:48.366Z,99.90
2022-09-16T09:49:56.915Z,99.90
2022-09-16T09:55:25.876Z,99.90
2022-09-16T10:00:28.776Z,99.90
2022-09-16T10:05:31.881Z,99.90
2022-09-16T10:10:40.938Z,99.90
2022-09-16T10:15:44.661Z,99.90
2022-09-16T10:21:00.698Z,99.90
2022-09-16T10:26:08.591Z,99.80
2022-09-16T10:31:12.908Z,99.70
2022-09-16T10:36:26.518Z,99.50
2022-09-16T10:41:45.751Z,99.10
2022-09-16T10:47:14.429Z,99.20
2022-09-16T10:52:29.803Z,99.10
2022-09-16T10:57:35.202Z,99.20
2022-09-16T11:03:16.267Z,99.30
2022-09-16T11:08:58.102Z,99.10
2022-09-16T11:14:36.763Z,97.70
2022-09-16T11:19:55.247Z,97.80
2022-09-16T11:25:35.113Z,96.90
2022-09-16T11:31:06.182Z,96.70
2022-09-16T11:36:38.146Z,96.20
2022-09-16T11:42:02.029Z,96.30
2022-09-16T11:47:40.632Z,96.00
2022-09-16T11:53:34.679Z,96.00
2022-09-16T11:58:58.538Z,96.30
2022-09-16T12:04:13.391Z,95.20
2022-09-16T12:09:33.670Z,95.50
2022-09-16T12:14:43.907Z,94.50
2022-09-16T12:20:33.974Z,93.80
2022-09-16T12:26:10.503Z,93.10
2022-09-16T12:31:24.220Z,91.90
2022-09-16T12:36:36.031Z,92.40
2022-09-16T12:42:23.709Z,92.50
2022-09-16T12:48:07.000Z,92.10
2022-09-16T12:53:35.357Z,91.90
2022-09-16T12:59:38.136Z,91.90
2022-09-16T13:04:55.949Z,92.10
2022-09-16T13:10:56.061Z,92.20
2022-09-16T13:16:07.057Z,91.70
2022-09-16T13:21:28.680Z,91.00
2022-09-16T13:26:44.666Z,90.50
2022-09-16T13:31:49.093Z,89.70
2022-09-16T13:36:52.212Z,88.10
2022-09-16T13:41:55.484Z,88.90
2022-09-16T13:47:10.522Z,86.70
2022-09-16T13:52:31.390Z,86.80
2022-09-16T13:58:06.561Z,87.40
2022-09-16T14:03:35.543Z,86.40
2022-09-16T14:09:06.178Z,86.90
2022-09-16T14:14:36.295Z,86.90
2022-09-16T14:19:42.513Z,87.20
2022-09-16T14:24:50.269Z,87.20
2022-09-16T14:30:07.200Z,87.40
2022-09-16T14:35:24.299Z,88.00
2022-09-16T14:40:28.735Z,88.30
2022-09-16T14:45:33.852Z,88.60
2022-09-16T14:50:44.865Z,89.10
2022-09-16T14:55:49.744Z,89.50
2022-09-16T15:01:04.277Z,89.90
2022-09-16T15:06:16.647Z,89.90
2022-09-16T15:11:46.338Z,89.60
2022-09-16T15:16:54.077Z,90.10
2022-09-16T15:21:58.040Z,90.20
2022-09-16T15:27:01.683Z,90.30
2022-09-16T15:32:23.362Z,90.40
2022-09-16T15:37:34.692Z,90.40
2022-09-16T15:42:38.147Z,90.70
2022-09-16T15:48:01.079Z,91.00
2022-09-16T15:53:18.533Z,91.10
2022-09-16T15:58:39.896Z,91.30
2022-09-16T16:03:45.564Z,91.50
2022-09-16T16:08:51.502Z,91.90
2022-09-16T16:13:56.552Z,92.30
2022-09-16T16:19:04.055Z,92.60
2022-09-16T16:24:06.839Z,92.80
2022-09-16T16:29:09.650Z,93.00
2022-09-16T16:34:12.412Z,93.30
2022-09-16T16:39:15.571Z,93.70
2022-09-16T16:44:19.053Z,94.00
2022-09-16T16:49:23.022Z,94.40
2022-09-16T16:54:27.443Z,94.80
2022-09-16T16:59:31.289Z,95.20
2022-09-16T17:04:34.261Z,95.50
2022-09-16T17:09:38.348Z,95.80
2022-09-16T17:14:42.184Z,96.10
2022-09-16T17:19:45.150Z,96.30
2022-09-16T17:24:48.581Z,96.60
2022-09-16T17:29:51.330Z,96.70
2022-09-16T17:34:54.083Z,97.30
2022-09-16T17:39:56.881Z,98.00
2022-09-16T17:45:00.876Z,98.30
2022-09-16T17:50:05.438Z,98.70
2022-09-16T17:55:08.759Z,99.80
2022-09-16T18:00:12.305Z,99.90
2022-09-16T18:05:15.485Z,99.90
2022-09-16T18:10:18.339Z,99.90
2022-09-16T18:15:21.156Z,99.90
2022-09-16T18:20:25.386Z,99.90
2022-09-16T18:25:29.048Z,99.90
2022-09-16T18:30:31.814Z,99.90
2022-09-16T18:35:37.265Z,99.90
2022-09-16T18:40:40.016Z,99.90
2022-09-16T18:45:42.876Z,99.90
2022-09-16T18:50:45.672Z,99.90
2022-09-16T18:55:48.396Z,99.90
2022-09-16T19:00:51.344Z,99.90
2022-09-16T19:05:57.490Z,99.90
2022-09-16T19:11:04.394Z,99.90
2022-09-16T19:16:07.498Z,99.90
2022-09-16T19:21:16.512Z,99.90
2022-09-16T19:26:20.062Z,99.90
2022-09-16T19:31:22.860Z,99.90
2022-09-16T19:36:29.123Z,99.90
2022-09-16T19:41:35.338Z,99.90
2022-09-16T19:46:42.511Z,99.90
2022-09-16T19:51:46.224Z,99.90
2022-09-16T19:56:50.932Z,99.90
2022-09-16T20:01:54.119Z,99.90
2022-09-16T20:06:56.931Z,99.90
2022-09-16T20:11:59.836Z,99.90
2022-09-16T20:17:03.771Z,99.90
2022-09-16T20:22:06.615Z,99.90
2022-09-16T20:27:09.559Z,99.90
2022-09-16T20:32:12.390Z,99.90
2022-09-16T20:37:15.280Z,99.90
2022-09-16T20:42:18.042Z,99.90
2022-09-16T20:47:21.632Z,99.90
2022-09-16T20:52:24.437Z,99.90
2022-09-16T20:57:29.163Z,99.90
2022-09-16T21:02:32.704Z,99.90
2022-09-16T21:07:35.565Z,99.90
2022-09-16T21:12:38.268Z,99.90
2022-09-16T21:17:40.993Z,99.90
2022-09-16T21:22:44.612Z,99.90
2022-09-16T21:27:48.231Z,99.90
2022-09-16T21:32:51.077Z,99.90
2022-09-16T21:37:54.359Z,99.90
2022-09-16T21:42:57.223Z,99.90
2022-09-16T21:47:59.996Z,99.90
2022-09-16T21:53:03.850Z,99.90
2022-09-16T21:58:08.332Z,99.90
2022-09-16T22:03:11.223Z,99.90
2022-09-16T22:08:14.113Z,99.90
2022-09-16T22:13:16.978Z,99.90
2022-09-16T22:18:20.206Z,99.90
2022-09-16T22:23:23.055Z,99.90
2022-09-16T22:28:25.910Z,99.90
2022-09-16T22:33:28.709Z,99.90
2022-09-16T22:38:31.911Z,99.90
2022-09-16T22:43:40.059Z,99.90
2022-09-16T22:48:44.001Z,99.90
2022-09-16T22:53:48.266Z,99.90
2022-09-16T22:58:56.802Z,99.90
2022-09-16T23:04:01.755Z,99.90
2022-09-16T23:09:07.032Z,99.90
2022-09-16T23:14:15.523Z,99.90
2022-09-16T23:19:18.899Z,99.90
2022-09-16T23:24:22.520Z,99.90
2022-09-16T23:29:25.838Z,99.90
2022-09-16T23:34:28.635Z,99.90
2022-09-16T23:39:31.384Z,99.90
2022-09-16T23:44:34.206Z,99.90
2022-09-16T23:49:37.229Z,99.90
2022-09-16T23:54:40.081Z,99.90
2022-09-16T23:59:42.836Z,99.90
